sensor_id;sensor_type;location;lat;lon;timestamp;pressure;altitude;pressure_sealevel;temperature;humidity
5298;BME280;14738;42.668;23.250;2023-04-08T00:02:08;48473.69;;;-141.90;55.57
5298;BME280;14738;42.668;23.250;2023-04-08T00:04:33;48463.75;;;-141.90;55.17
5298;BME280;14738;42.668;23.250;2023-04-08T00:06:58;48485.59;;;-141.90;55.88
5298;BME280;14738;42.668;23.250;2023-04-08T00:09:24;48465.75;;;-141.90;55.42
5298;BME280;14738;42.668;23.250;2023-04-08T00:11:49;48483.59;;;-141.90;55.74
5298;BME280;14738;42.668;23.250;2023-04-08T00:14:15;48445.88;;;-141.90;55.07
5298;BME280;14738;42.668;23.250;2023-04-08T00:16:40;48461.78;;;-141.90;55.53
5298;BME280;14738;42.668;23.250;2023-04-08T00:19:06;48519.34;;;-141.90;55.90
5298;BME280;14738;42.668;23.250;2023-04-08T00:21:31;48495.53;;;-141.90;56.33
5298;BME280;14738;42.668;23.250;2023-04-08T00:23:57;48513.38;;;-141.90;56.19
5298;BME280;14738;42.668;23.250;2023-04-08T00:26:22;48485.59;;;-141.90;56.72
5298;BME280;14738;42.668;23.250;2023-04-08T00:28:47;48495.53;;;-141.90;57.00
5298;BME280;14738;42.668;23.250;2023-04-08T00:31:13;48503.47;;;-141.90;57.43
5298;BME280;14738;42.668;23.250;2023-04-08T00:33:38;48507.44;;;-141.90;56.88
5298;BME280;14738;42.668;23.250;2023-04-08T00:36:04;48501.47;;;-141.90;57.19
5298;BME280;14738;42.668;23.250;2023-04-08T00:38:29;48479.63;;;-141.90;57.03
5298;BME280;14738;42.668;23.250;2023-04-08T00:40:55;48499.50;;;-141.90;58.22
5298;BME280;14738;42.668;23.250;2023-04-08T00:43:20;48481.63;;;-141.90;59.19
5298;BME280;14738;42.668;23.250;2023-04-08T00:45:49;48497.50;;;-141.90;59.41
5298;BME280;14738;42.668;23.250;2023-04-08T00:48:14;48507.44;;;-141.90;60.35
5298;BME280;14738;42.668;23.250;2023-04-08T00:50:42;48485.59;;;-141.90;60.08
5298;BME280;14738;42.668;23.250;2023-04-08T00:53:08;48503.47;;;-141.90;59.88
5298;BME280;14738;42.668;23.250;2023-04-08T00:55:33;48485.59;;;-141.90;58.72
5298;BME280;14738;42.668;23.250;2023-04-08T00:57:58;48489.56;;;-141.90;58.05
5298;BME280;14738;42.668;23.250;2023-04-08T01:00:24;48469.72;;;-141.90;58.36
5298;BME280;14738;42.668;23.250;2023-04-08T01:02:56;48511.41;;;-141.90;58.54
5298;BME280;14738;42.668;23.250;2023-04-08T01:08:13;48497.50;;;-141.90;58.78
5298;BME280;14738;42.668;23.250;2023-04-08T01:10:40;48501.47;;;-141.90;58.55
5298;BME280;14738;42.668;23.250;2023-04-08T01:13:08;48477.66;;;-141.90;58.72
5298;BME280;14738;42.668;23.250;2023-04-08T01:15:37;48517.34;;;-141.90;58.29
5298;BME280;14738;42.668;23.250;2023-04-08T01:18:06;48485.59;;;-141.90;58.73
5298;BME280;14738;42.668;23.250;2023-04-08T01:20:32;48499.50;;;-141.90;58.75
5298;BME280;14738;42.668;23.250;2023-04-08T01:25:56;48481.63;;;-141.90;59.60
5298;BME280;14738;42.668;23.250;2023-04-08T01:28:23;48485.59;;;-141.90;61.07
5298;BME280;14738;42.668;23.250;2023-04-08T01:30:54;48519.34;;;-141.90;60.25
5298;BME280;14738;42.668;23.250;2023-04-08T01:33:21;48503.47;;;-141.90;60.33
5298;BME280;14738;42.668;23.250;2023-04-08T01:35:47;48497.50;;;-141.90;60.67
5298;BME280;14738;42.668;23.250;2023-04-08T01:38:15;48465.75;;;-141.90;59.50
5298;BME280;14738;42.668;23.250;2023-04-08T01:40:43;48495.53;;;-141.90;59.07
5298;BME280;14738;42.668;23.250;2023-04-08T01:43:09;48493.53;;;-141.90;59.62
5298;BME280;14738;42.668;23.250;2023-04-08T01:45:35;48513.38;;;-141.90;59.35
5298;BME280;14738;42.668;23.250;2023-04-08T01:48:01;48505.44;;;-141.90;58.63
5298;BME280;14738;42.668;23.250;2023-04-08T01:50:28;48517.34;;;-141.90;58.79
5298;BME280;14738;42.668;23.250;2023-04-08T01:52:56;48485.59;;;-141.90;59.38
5298;BME280;14738;42.668;23.250;2023-04-08T01:55:23;48501.47;;;-141.90;60.54
5298;BME280;14738;42.668;23.250;2023-04-08T01:57:51;48501.47;;;-141.90;60.25
5298;BME280;14738;42.668;23.250;2023-04-08T02:00:23;48525.31;;;-141.90;60.42
5298;BME280;14738;42.668;23.250;2023-04-08T02:02:50;48485.59;;;-141.90;61.29
5298;BME280;14738;42.668;23.250;2023-04-08T02:05:16;48489.56;;;-141.90;61.71
5298;BME280;14738;42.668;23.250;2023-04-08T02:07:42;48511.41;;;-141.90;60.93
5298;BME280;14738;42.668;23.250;2023-04-08T02:10:09;48501.47;;;-141.90;61.76
5298;BME280;14738;42.668;23.250;2023-04-08T02:12:34;48487.56;;;-141.90;61.50
5298;BME280;14738;42.668;23.250;2023-04-08T02:15:00;48515.38;;;-141.90;61.74
5298;BME280;14738;42.668;23.250;2023-04-08T02:20:07;48555.09;;;-141.90;61.30
5298;BME280;14738;42.668;23.250;2023-04-08T02:25:16;48501.47;;;-141.90;61.03
5298;BME280;14738;42.668;23.250;2023-04-08T02:27:43;48477.66;;;-141.90;61.14
5298;BME280;14738;42.668;23.250;2023-04-08T02:30:11;48517.34;;;-141.90;60.33
5298;BME280;14738;42.668;23.250;2023-04-08T02:32:37;48501.47;;;-141.90;59.37
5298;BME280;14738;42.668;23.250;2023-04-08T02:35:04;48513.38;;;-141.90;58.47
5298;BME280;14738;42.668;23.250;2023-04-08T02:37:31;48465.75;;;-141.90;58.68
5298;BME280;14738;42.668;23.250;2023-04-08T02:39:57;48485.59;;;-141.90;58.63
5298;BME280;14738;42.668;23.250;2023-04-08T02:42:22;48489.56;;;-141.90;58.54
5298;BME280;14738;42.668;23.250;2023-04-08T02:44:48;48477.66;;;-141.90;59.04
5298;BME280;14738;42.668;23.250;2023-04-08T02:47:13;48487.56;;;-141.90;59.42
5298;BME280;14738;42.668;23.250;2023-04-08T02:49:39;48475.66;;;-141.90;59.45
5298;BME280;14738;42.668;23.250;2023-04-08T02:52:04;48515.38;;;-141.90;60.12
5298;BME280;14738;42.668;23.250;2023-04-08T02:54:30;48479.63;;;-141.90;59.79
5298;BME280;14738;42.668;23.250;2023-04-08T02:56:55;48499.50;;;-141.90;59.73
5298;BME280;14738;42.668;23.250;2023-04-08T02:59:21;48501.47;;;-141.90;59.64
5298;BME280;14738;42.668;23.250;2023-04-08T03:01:46;48473.69;;;-141.90;59.73
5298;BME280;14738;42.668;23.250;2023-04-08T03:04:11;48509.41;;;-141.90;59.56
5298;BME280;14738;42.668;23.250;2023-04-08T03:06:37;48521.34;;;-141.90;59.46
5298;BME280;14738;42.668;23.250;2023-04-08T03:09:02;48501.47;;;-141.90;59.34
5298;BME280;14738;42.668;23.250;2023-04-08T03:11:30;48521.34;;;-141.90;58.98
5298;BME280;14738;42.668;23.250;2023-04-08T03:13:55;48517.34;;;-141.90;58.65
5298;BME280;14738;42.668;23.250;2023-04-08T03:16:20;48479.63;;;-141.90;58.14
5298;BME280;14738;42.668;23.250;2023-04-08T03:18:46;48497.50;;;-141.90;57.46
5298;BME280;14738;42.668;23.250;2023-04-08T03:21:11;48493.53;;;-141.90;56.49
5298;BME280;14738;42.668;23.250;2023-04-08T03:23:36;48475.66;;;-141.90;56.25
5298;BME280;14738;42.668;23.250;2023-04-08T03:26:02;48485.59;;;-141.90;56.95
5298;BME280;14738;42.668;23.250;2023-04-08T03:28:27;48483.59;;;-141.90;56.97
5298;BME280;14738;42.668;23.250;2023-04-08T03:30:53;48505.44;;;-141.90;57.46
5298;BME280;14738;42.668;23.250;2023-04-08T03:33:18;48517.34;;;-141.90;57.24
5298;BME280;14738;42.668;23.250;2023-04-08T03:35:43;48517.34;;;-141.90;57.60
5298;BME280;14738;42.668;23.250;2023-04-08T03:38:09;48481.63;;;-141.90;57.62
5298;BME280;14738;42.668;23.250;2023-04-08T03:40:34;48513.38;;;-141.90;57.50
5298;BME280;14738;42.668;23.250;2023-04-08T03:43:00;48501.47;;;-141.90;57.61
5298;BME280;14738;42.668;23.250;2023-04-08T03:45:25;48491.56;;;-141.90;57.26
5298;BME280;14738;42.668;23.250;2023-04-08T03:47:51;48481.63;;;-141.90;57.00
5298;BME280;14738;42.668;23.250;2023-04-08T03:50:16;48525.31;;;-141.90;57.27
5298;BME280;14738;42.668;23.250;2023-04-08T03:52:41;48499.50;;;-141.90;57.51
5298;BME280;14738;42.668;23.250;2023-04-08T03:55:07;48479.63;;;-141.90;57.84
5298;BME280;14738;42.668;23.250;2023-04-08T03:57:32;48483.59;;;-141.90;58.02
5298;BME280;14738;42.668;23.250;2023-04-08T03:59:58;48469.72;;;-141.90;58.07
5298;BME280;14738;42.668;23.250;2023-04-08T04:02:23;48503.47;;;-141.90;58.24
5298;BME280;14738;42.668;23.250;2023-04-08T04:04:49;48499.50;;;-141.90;59.36
5298;BME280;14738;42.668;23.250;2023-04-08T04:07:14;48489.56;;;-141.90;59.42
5298;BME280;14738;42.668;23.250;2023-04-08T04:09:40;48471.69;;;-141.90;59.42
5298;BME280;14738;42.668;23.250;2023-04-08T04:12:05;48491.56;;;-141.90;60.02
5298;BME280;14738;42.668;23.250;2023-04-08T04:14:31;48493.53;;;-141.90;60.34
5298;BME280;14738;42.668;23.250;2023-04-08T04:16:56;48473.69;;;-141.90;60.20
5298;BME280;14738;42.668;23.250;2023-04-08T04:19:21;48485.59;;;-141.90;60.54
5298;BME280;14738;42.668;23.250;2023-04-08T04:21:47;48509.41;;;-141.90;60.40
5298;BME280;14738;42.668;23.250;2023-04-08T04:24:12;48487.56;;;-141.90;61.34
5298;BME280;14738;42.668;23.250;2023-04-08T04:26:40;48481.63;;;-141.90;60.27
5298;BME280;14738;42.668;23.250;2023-04-08T04:29:06;48517.34;;;-141.90;59.94
5298;BME280;14738;42.668;23.250;2023-04-08T04:31:31;48493.53;;;-141.90;59.72
5298;BME280;14738;42.668;23.250;2023-04-08T04:33:57;48485.59;;;-141.90;59.98
5298;BME280;14738;42.668;23.250;2023-04-08T04:36:22;48473.69;;;-141.90;60.35
5298;BME280;14738;42.668;23.250;2023-04-08T04:38:48;48509.41;;;-141.90;61.06
5298;BME280;14738;42.668;23.250;2023-04-08T04:41:14;48509.41;;;-141.90;61.02
5298;BME280;14738;42.668;23.250;2023-04-08T04:43:40;48489.56;;;-141.90;60.89
5298;BME280;14738;42.668;23.250;2023-04-08T04:46:05;48493.53;;;-141.90;60.56
5298;BME280;14738;42.668;23.250;2023-04-08T04:48:32;48495.53;;;-141.90;60.68
5298;BME280;14738;42.668;23.250;2023-04-08T04:50:58;48481.63;;;-141.90;60.43
5298;BME280;14738;42.668;23.250;2023-04-08T04:53:24;48453.81;;;-141.90;61.12
5298;BME280;14738;42.668;23.250;2023-04-08T04:55:50;48489.56;;;-141.90;61.26
5298;BME280;14738;42.668;23.250;2023-04-08T04:58:16;48489.56;;;-141.90;60.93
5298;BME280;14738;42.668;23.250;2023-04-08T05:00:41;48461.78;;;-141.90;60.40
5298;BME280;14738;42.668;23.250;2023-04-08T05:03:06;48501.47;;;-141.90;59.07
5298;BME280;14738;42.668;23.250;2023-04-08T05:05:32;48485.59;;;-141.90;57.87
5298;BME280;14738;42.668;23.250;2023-04-08T05:07:57;48481.63;;;-141.90;56.25
5298;BME280;14738;42.668;23.250;2023-04-08T05:10:23;48473.69;;;-141.90;55.62
5298;BME280;14738;42.668;23.250;2023-04-08T05:12:48;48499.50;;;-141.90;55.17
5298;BME280;14738;42.668;23.250;2023-04-08T05:15:13;48475.66;;;-141.90;54.25
5298;BME280;14738;42.668;23.250;2023-04-08T05:17:39;48475.66;;;-141.90;53.99
5298;BME280;14738;42.668;23.250;2023-04-08T05:20:05;48465.75;;;-141.90;53.84
5298;BME280;14738;42.668;23.250;2023-04-08T05:22:31;48481.63;;;-141.90;53.34
5298;BME280;14738;42.668;23.250;2023-04-08T05:24:56;48467.72;;;-141.90;52.34
5298;BME280;14738;42.668;23.250;2023-04-08T05:27:22;48475.66;;;-141.90;52.39
5298;BME280;14738;42.668;23.250;2023-04-08T05:29:47;48473.69;;;-141.90;51.67
5298;BME280;14738;42.668;23.250;2023-04-08T05:32:13;48489.56;;;-141.90;50.83
5298;BME280;14738;42.668;23.250;2023-04-08T05:34:38;48445.88;;;-141.90;50.48
5298;BME280;14738;42.668;23.250;2023-04-08T05:37:03;48483.59;;;-141.90;50.03
5298;BME280;14738;42.668;23.250;2023-04-08T05:39:29;48485.59;;;-141.90;50.42
5298;BME280;14738;42.668;23.250;2023-04-08T05:41:54;48422.06;;;-141.90;49.46
5298;BME280;14738;42.668;23.250;2023-04-08T05:44:20;48453.81;;;-141.90;49.19
5298;BME280;14738;42.668;23.250;2023-04-08T05:46:45;48453.81;;;-141.90;49.21
5298;BME280;14738;42.668;23.250;2023-04-08T05:49:11;48445.88;;;-141.90;48.54
5298;BME280;14738;42.668;23.250;2023-04-08T05:51:37;48437.94;;;-141.90;48.53
5298;BME280;14738;42.668;23.250;2023-04-08T05:54:03;48463.75;;;-141.90;48.30
5298;BME280;14738;42.668;23.250;2023-04-08T05:56:29;48443.91;;;-141.90;48.08
5298;BME280;14738;42.668;23.250;2023-04-08T05:58:56;48477.66;;;-141.90;48.33
5298;BME280;14738;42.668;23.250;2023-04-08T06:01:22;48457.81;;;-141.90;48.11
5298;BME280;14738;42.668;23.250;2023-04-08T06:03:47;48432.00;;;-141.90;47.74
5298;BME280;14738;42.668;23.250;2023-04-08T06:06:12;48445.88;;;-141.90;47.39
5298;BME280;14738;42.668;23.250;2023-04-08T06:08:38;48449.84;;;-141.90;47.02
5298;BME280;14738;42.668;23.250;2023-04-08T06:11:03;48465.75;;;-141.90;47.61
5298;BME280;14738;42.668;23.250;2023-04-08T06:13:29;48426.03;;;-141.90;48.29
5298;BME280;14738;42.668;23.250;2023-04-08T06:15:55;48441.91;;;-141.90;47.58
5298;BME280;14738;42.668;23.250;2023-04-08T06:18:20;48441.91;;;-141.90;46.77
5298;BME280;14738;42.668;23.250;2023-04-08T06:20:46;48455.81;;;-141.90;46.42
5298;BME280;14738;42.668;23.250;2023-04-08T06:23:11;48461.78;;;-141.90;45.25
5298;BME280;14738;42.668;23.250;2023-04-08T06:25:37;48443.91;;;-141.90;44.98
5298;BME280;14738;42.668;23.250;2023-04-08T06:28:02;48445.88;;;-141.90;44.91
5298;BME280;14738;42.668;23.250;2023-04-08T06:30:28;48443.91;;;-141.90;44.47
5298;BME280;14738;42.668;23.250;2023-04-08T06:32:53;48441.91;;;-141.90;44.23
5298;BME280;14738;42.668;23.250;2023-04-08T06:35:18;48435.97;;;-141.90;43.55
5298;BME280;14738;42.668;23.250;2023-04-08T06:37:44;48453.81;;;-141.90;43.10
5298;BME280;14738;42.668;23.250;2023-04-08T06:40:10;48471.69;;;-141.90;42.49
5298;BME280;14738;42.668;23.250;2023-04-08T06:42:35;48461.78;;;-141.90;42.79
5298;BME280;14738;42.668;23.250;2023-04-08T06:45:03;48437.94;;;-141.90;43.42
5298;BME280;14738;42.668;23.250;2023-04-08T06:47:28;48439.94;;;-141.90;44.22
5298;BME280;14738;42.668;23.250;2023-04-08T06:49:54;48445.88;;;-141.90;43.64
5298;BME280;14738;42.668;23.250;2023-04-08T06:52:19;48441.91;;;-141.90;43.73
5298;BME280;14738;42.668;23.250;2023-04-08T06:54:45;48453.81;;;-141.90;43.08
5298;BME280;14738;42.668;23.250;2023-04-08T06:57:11;48435.97;;;-141.90;43.48
5298;BME280;14738;42.668;23.250;2023-04-08T06:59:36;48439.94;;;-141.90;43.37
5298;BME280;14738;42.668;23.250;2023-04-08T07:02:02;48463.75;;;-141.90;44.22
5298;BME280;14738;42.668;23.250;2023-04-08T07:04:27;48441.91;;;-141.90;44.37
5298;BME280;14738;42.668;23.250;2023-04-08T07:06:53;48453.81;;;-141.90;44.32
5298;BME280;14738;42.668;23.250;2023-04-08T07:09:18;48422.06;;;-141.90;43.97
5298;BME280;14738;42.668;23.250;2023-04-08T07:11:43;48445.88;;;-141.90;43.40
5298;BME280;14738;42.668;23.250;2023-04-08T07:14:10;48430.00;;;-141.90;42.18
5298;BME280;14738;42.668;23.250;2023-04-08T07:16:36;48471.69;;;-141.90;42.21
5298;BME280;14738;42.668;23.250;2023-04-08T07:19:01;48451.84;;;-141.90;42.01
5298;BME280;14738;42.668;23.250;2023-04-08T07:21:27;48441.91;;;-141.90;41.86
5298;BME280;14738;42.668;23.250;2023-04-08T07:23:52;48422.06;;;-141.90;42.35
5298;BME280;14738;42.668;23.250;2023-04-08T07:26:17;48422.06;;;-141.90;42.68
5298;BME280;14738;42.668;23.250;2023-04-08T07:28:43;48386.34;;;-141.90;42.46
5298;BME280;14738;42.668;23.250;2023-04-08T07:31:14;48435.97;;;-141.90;43.06
5298;BME280;14738;42.668;23.250;2023-04-08T07:33:40;48414.13;;;-141.90;42.43
5298;BME280;14738;42.668;23.250;2023-04-08T07:36:06;48437.94;;;-141.90;41.87
5298;BME280;14738;42.668;23.250;2023-04-08T07:38:32;48439.94;;;-141.90;41.59
5298;BME280;14738;42.668;23.250;2023-04-08T07:40:58;48374.41;;;-141.90;40.82
5298;BME280;14738;42.668;23.250;2023-04-08T07:43:23;48449.84;;;-141.90;40.56
5298;BME280;14738;42.668;23.250;2023-04-08T07:45:48;48435.97;;;-141.90;40.35
5298;BME280;14738;42.668;23.250;2023-04-08T07:48:14;48449.84;;;-141.90;40.51
5298;BME280;14738;42.668;23.250;2023-04-08T07:50:39;48420.09;;;-141.90;39.85
5298;BME280;14738;42.668;23.250;2023-04-08T07:53:05;48410.16;;;-141.90;40.57
5298;BME280;14738;42.668;23.250;2023-04-08T07:55:33;48469.72;;;-141.90;40.77
5298;BME280;14738;42.668;23.250;2023-04-08T07:57:59;48441.91;;;-141.90;40.17
5298;BME280;14738;42.668;23.250;2023-04-08T08:00:25;48398.25;;;-141.90;40.01
5298;BME280;14738;42.668;23.250;2023-04-08T08:02:51;48426.03;;;-141.90;39.67
5298;BME280;14738;42.668;23.250;2023-04-08T08:05:16;48437.94;;;-141.90;40.13
5298;BME280;14738;42.668;23.250;2023-04-08T08:07:42;48443.91;;;-141.90;41.54
5298;BME280;14738;42.668;23.250;2023-04-08T08:10:08;48437.94;;;-141.90;42.41
5298;BME280;14738;42.668;23.250;2023-04-08T08:12:33;48449.84;;;-141.90;41.94
5298;BME280;14738;42.668;23.250;2023-04-08T08:14:59;48420.09;;;-141.90;42.27
5298;BME280;14738;42.668;23.250;2023-04-08T08:17:24;48455.81;;;-141.90;41.87
5298;BME280;14738;42.668;23.250;2023-04-08T08:19:50;48410.16;;;-141.90;40.67
5298;BME280;14738;42.668;23.250;2023-04-08T08:22:15;48402.22;;;-141.90;40.05
5298;BME280;14738;42.668;23.250;2023-04-08T08:24:41;48441.91;;;-141.90;40.04
5298;BME280;14738;42.668;23.250;2023-04-08T08:27:09;48426.03;;;-141.90;40.03
5298;BME280;14738;42.668;23.250;2023-04-08T08:29:35;48441.91;;;-141.90;40.84
5298;BME280;14738;42.668;23.250;2023-04-08T08:32:01;48445.88;;;-141.90;40.22
5298;BME280;14738;42.668;23.250;2023-04-08T08:34:28;48382.34;;;-141.90;39.52
5298;BME280;14738;42.668;23.250;2023-04-08T08:36:53;48437.94;;;-141.90;39.27
5298;BME280;14738;42.668;23.250;2023-04-08T08:39:20;48402.22;;;-141.90;39.20
5298;BME280;14738;42.668;23.250;2023-04-08T08:41:45;48433.97;;;-141.90;39.46
5298;BME280;14738;42.668;23.250;2023-04-08T08:44:11;48433.97;;;-141.90;38.82
5298;BME280;14738;42.668;23.250;2023-04-08T08:46:42;48426.03;;;-141.90;38.78
5298;BME280;14738;42.668;23.250;2023-04-08T08:49:08;48418.09;;;-141.90;38.59
5298;BME280;14738;42.668;23.250;2023-04-08T08:51:33;48430.00;;;-141.90;39.43
5298;BME280;14738;42.668;23.250;2023-04-08T08:54:02;48418.09;;;-141.90;40.30
5298;BME280;14738;42.668;23.250;2023-04-08T08:56:29;48433.97;;;-141.90;40.04
5298;BME280;14738;42.668;23.250;2023-04-08T08:58:54;48430.00;;;-141.90;40.79
5298;BME280;14738;42.668;23.250;2023-04-08T09:01:39;48408.16;;;-141.90;40.55
5298;BME280;14738;42.668;23.250;2023-04-08T09:04:13;48418.09;;;-141.90;40.43
5298;BME280;14738;42.668;23.250;2023-04-08T09:06:41;48416.09;;;-141.90;39.56
5298;BME280;14738;42.668;23.250;2023-04-08T09:09:07;48412.13;;;-141.90;39.57
5298;BME280;14738;42.668;23.250;2023-04-08T09:11:41;48422.06;;;-141.90;38.33
5298;BME280;14738;42.668;23.250;2023-04-08T09:14:21;48410.16;;;-141.90;37.25
5298;BME280;14738;42.668;23.250;2023-04-08T09:16:46;48439.94;;;-141.90;36.63
5298;BME280;14738;42.668;23.250;2023-04-08T09:19:12;48430.00;;;-141.90;36.19
5298;BME280;14738;42.668;23.250;2023-04-08T09:21:38;48430.00;;;-141.90;34.62
5298;BME280;14738;42.668;23.250;2023-04-08T09:24:05;48426.03;;;-141.90;35.23
5298;BME280;14738;42.668;23.250;2023-04-08T09:26:30;48426.03;;;-141.90;35.13
5298;BME280;14738;42.668;23.250;2023-04-08T09:28:58;48424.06;;;-141.90;35.23
5298;BME280;14738;42.668;23.250;2023-04-08T09:31:34;48416.09;;;-141.90;35.89
5298;BME280;14738;42.668;23.250;2023-04-08T09:34:12;48418.09;;;-141.90;35.98
5298;BME280;14738;42.668;23.250;2023-04-08T09:36:39;48406.19;;;-141.90;36.11
5298;BME280;14738;42.668;23.250;2023-04-08T09:39:05;48414.13;;;-141.90;36.36
5298;BME280;14738;42.668;23.250;2023-04-08T09:41:35;48392.28;;;-141.90;36.78
5298;BME280;14738;42.668;23.250;2023-04-08T09:44:06;48433.97;;;-141.90;37.40
5298;BME280;14738;42.668;23.250;2023-04-08T09:52:26;48451.84;;;-141.90;36.49
5298;BME280;14738;42.668;23.250;2023-04-08T09:55:01;48430.00;;;-141.90;36.42
5298;BME280;14738;42.668;23.250;2023-04-08T09:57:43;48412.13;;;-141.90;37.62
5298;BME280;14738;42.668;23.250;2023-04-08T10:00:14;48390.31;;;-141.90;38.03
5298;BME280;14738;42.668;23.250;2023-04-08T10:02:48;48406.19;;;-141.90;37.56
5298;BME280;14738;42.668;23.250;2023-04-08T10:05:18;48424.06;;;-141.90;37.80
5298;BME280;14738;42.668;23.250;2023-04-08T10:07:45;48414.13;;;-141.90;36.96
5298;BME280;14738;42.668;23.250;2023-04-08T10:10:10;48437.94;;;-141.90;36.66
5298;BME280;14738;42.668;23.250;2023-04-08T10:12:36;48449.84;;;-141.90;37.29
5298;BME280;14738;42.668;23.250;2023-04-08T10:15:24;48418.09;;;-141.90;37.27
5298;BME280;14738;42.668;23.250;2023-04-08T10:17:51;48426.03;;;-141.90;36.41
5298;BME280;14738;42.668;23.250;2023-04-08T10:23:07;48414.13;;;-141.90;36.77
5298;BME280;14738;42.668;23.250;2023-04-08T10:25:37;48404.19;;;-141.90;37.14
5298;BME280;14738;42.668;23.250;2023-04-08T10:33:21;48410.16;;;-141.90;36.53
5298;BME280;14738;42.668;23.250;2023-04-08T10:38:14;48402.22;;;-141.90;36.80
5298;BME280;14738;42.668;23.250;2023-04-08T10:40:41;48437.94;;;-141.90;36.42
5298;BME280;14738;42.668;23.250;2023-04-08T10:43:11;48424.06;;;-141.90;36.58
5298;BME280;14738;42.668;23.250;2023-04-08T10:45:41;48414.13;;;-141.90;36.71
5298;BME280;14738;42.668;23.250;2023-04-08T10:48:23;48402.22;;;-141.90;37.90
5298;BME280;14738;42.668;23.250;2023-04-08T10:50:57;48420.09;;;-141.90;38.23
5298;BME280;14738;42.668;23.250;2023-04-08T10:53:31;48418.09;;;-141.90;37.71
5298;BME280;14738;42.668;23.250;2023-04-08T10:56:04;48408.16;;;-141.90;37.54
5298;BME280;14738;42.668;23.250;2023-04-08T10:58:35;48414.13;;;-141.90;36.70
5298;BME280;14738;42.668;23.250;2023-04-08T11:01:12;48428.03;;;-141.90;37.21
5298;BME280;14738;42.668;23.250;2023-04-08T11:03:37;48422.06;;;-141.90;37.11
5298;BME280;14738;42.668;23.250;2023-04-08T11:06:02;48398.25;;;-141.90;38.15
5298;BME280;14738;42.668;23.250;2023-04-08T11:08:29;48402.22;;;-141.90;37.49
5298;BME280;14738;42.668;23.250;2023-04-08T11:10:55;48410.16;;;-141.90;36.89
5298;BME280;14738;42.668;23.250;2023-04-08T11:13:21;48424.06;;;-141.90;36.04
5298;BME280;14738;42.668;23.250;2023-04-08T11:15:48;48422.06;;;-141.90;36.00
5298;BME280;14738;42.668;23.250;2023-04-08T11:18:14;48406.19;;;-141.90;35.71
5298;BME280;14738;42.668;23.250;2023-04-08T11:20:43;48408.16;;;-141.90;35.83
5298;BME280;14738;42.668;23.250;2023-04-08T11:23:14;48414.13;;;-141.90;35.03
5298;BME280;14738;42.668;23.250;2023-04-08T11:25:41;48432.00;;;-141.90;34.30
5298;BME280;14738;42.668;23.250;2023-04-08T11:28:07;48430.00;;;-141.90;35.33
5298;BME280;14738;42.668;23.250;2023-04-08T11:30:33;48422.06;;;-141.90;35.14
5298;BME280;14738;42.668;23.250;2023-04-08T11:32:58;48449.84;;;-141.90;35.11
5298;BME280;14738;42.668;23.250;2023-04-08T11:35:27;48376.41;;;-141.90;35.18
5298;BME280;14738;42.668;23.250;2023-04-08T11:37:55;48447.88;;;-141.90;35.23
5298;BME280;14738;42.668;23.250;2023-04-08T11:40:21;48390.31;;;-141.90;35.30
5298;BME280;14738;42.668;23.250;2023-04-08T11:42:48;48422.06;;;-141.90;36.28
5298;BME280;14738;42.668;23.250;2023-04-08T11:45:15;48433.97;;;-141.90;34.71
5298;BME280;14738;42.668;23.250;2023-04-08T11:47:42;48414.13;;;-141.90;34.15
5298;BME280;14738;42.668;23.250;2023-04-08T11:50:08;48410.16;;;-141.90;34.30
5298;BME280;14738;42.668;23.250;2023-04-08T11:55:05;48437.94;;;-141.90;35.21
5298;BME280;14738;42.668;23.250;2023-04-08T11:57:31;48410.16;;;-141.90;34.21
5298;BME280;14738;42.668;23.250;2023-04-08T11:59:56;48392.28;;;-141.90;35.40
5298;BME280;14738;42.668;23.250;2023-04-08T12:02:22;48412.13;;;-141.90;35.59
5298;BME280;14738;42.668;23.250;2023-04-08T12:04:48;48396.25;;;-141.90;36.05
5298;BME280;14738;42.668;23.250;2023-04-08T12:07:13;48414.13;;;-141.90;36.19
5298;BME280;14738;42.668;23.250;2023-04-08T12:09:39;48378.38;;;-141.90;35.96
5298;BME280;14738;42.668;23.250;2023-04-08T12:12:04;48433.97;;;-141.90;35.83
5298;BME280;14738;42.668;23.250;2023-04-08T12:14:30;48400.22;;;-141.90;35.83
5298;BME280;14738;42.668;23.250;2023-04-08T12:16:55;48396.25;;;-141.90;36.46
5298;BME280;14738;42.668;23.250;2023-04-08T12:19:21;48439.94;;;-141.90;36.21
5298;BME280;14738;42.668;23.250;2023-04-08T12:21:46;48416.09;;;-141.90;36.28
5298;BME280;14738;42.668;23.250;2023-04-08T12:24:11;48398.25;;;-141.90;36.10
5298;BME280;14738;42.668;23.250;2023-04-08T12:26:37;48410.16;;;-141.90;36.12
5298;BME280;14738;42.668;23.250;2023-04-08T12:29:02;48433.97;;;-141.90;35.98
5298;BME280;14738;42.668;23.250;2023-04-08T12:31:27;48418.09;;;-141.90;36.25
5298;BME280;14738;42.668;23.250;2023-04-08T12:33:53;48437.94;;;-141.90;35.66
5298;BME280;14738;42.668;23.250;2023-04-08T12:36:18;48443.91;;;-141.90;36.33
5298;BME280;14738;42.668;23.250;2023-04-08T12:38:43;48406.19;;;-141.90;35.95
5298;BME280;14738;42.668;23.250;2023-04-08T12:41:09;48430.00;;;-141.90;35.88
5298;BME280;14738;42.668;23.250;2023-04-08T12:43:34;48432.00;;;-141.90;35.86
5298;BME280;14738;42.668;23.250;2023-04-08T12:46:00;48412.13;;;-141.90;35.91
5298;BME280;14738;42.668;23.250;2023-04-08T12:48:26;48420.09;;;-141.90;36.08
5298;BME280;14738;42.668;23.250;2023-04-08T12:50:52;48414.13;;;-141.90;36.97
5298;BME280;14738;42.668;23.250;2023-04-08T12:53:17;48437.94;;;-141.90;37.63
5298;BME280;14738;42.668;23.250;2023-04-08T12:55:43;48408.16;;;-141.90;40.86
5298;BME280;14738;42.668;23.250;2023-04-08T12:58:08;48430.00;;;-141.90;41.55
5298;BME280;14738;42.668;23.250;2023-04-08T13:00:34;48414.13;;;-141.90;42.09
5298;BME280;14738;42.668;23.250;2023-04-08T13:03:02;48402.22;;;-141.90;42.91
5298;BME280;14738;42.668;23.250;2023-04-08T13:05:28;48412.13;;;-141.90;41.71
5298;BME280;14738;42.668;23.250;2023-04-08T13:07:53;48435.97;;;-141.90;44.34